Time;durP1;ratioP1;P1;durP2;ratioP2;P2;SDS_P1;SDS_P2;PMS_P1;PMS_P2;Temp;Humidity;BMP_temperature;BMP_pressure;BME280_temperature;BME280_humidity;BME280_pressure;Samples;Min_cycle;Max_cycle;Signal;HPM_P1;HPM_P2
2022/06/22 00:00:18;;;;;;;1.55;1.10;;;21.60;75.20;;;;;;4990480;28;20512;-60
2022/06/22 00:02:48;;;;;;;4.20;0.82;;;21.60;75.20;;;;;;4991157;28;20038;-60
2022/06/22 00:05:18;;;;;;;0.80;0.80;;;21.60;75.30;;;;;;4991005;28;20472;-60
2022/06/22 00:07:58;;;;;;;1.13;0.95;;;21.60;75.30;;;;;;4991082;28;20049;-60
2022/06/22 00:10:33;;;;;;;1.45;0.90;;;21.60;75.40;;;;;;4995985;28;20097;-60
2022/06/22 00:13:01;;;;;;;0.90;0.90;;;21.60;75.40;;;;;;5005842;28;20053;-60
2022/06/22 00:15:37;;;;;;;2.58;1.08;;;21.60;75.40;;;;;;5010005;28;20491;-60
2022/06/22 00:18:22;;;;;;;0.80;0.80;;;21.60;75.50;;;;;;5010729;28;20041;-60
2022/06/22 00:20:53;;;;;;;0.80;0.80;;;21.60;75.50;;;;;;4992732;28;20043;-60
2022/06/22 00:23:28;;;;;;;0.98;0.80;;;21.60;75.40;;;;;;4990253;28;20120;-60
2022/06/22 00:26:04;;;;;;;0.77;0.77;;;21.50;75.40;;;;;;4990115;28;20125;-60
2022/06/22 00:28:51;;;;;;;1.17;1.00;;;21.60;75.50;;;;;;4989749;28;20104;-60
2022/06/22 00:31:49;;;;;;;1.33;1.00;;;21.60;75.60;;;;;;4992712;28;20054;-60
2022/06/22 00:34:21;;;;;;;1.58;1.00;;;21.50;75.60;;;;;;4993647;28;20108;-60
2022/06/22 00:37:05;;;;;;;0.77;0.77;;;21.50;75.50;;;;;;5013987;28;20053;-60
2022/06/22 00:39:31;;;;;;;1.33;0.88;;;21.50;75.50;;;;;;5012017;28;20069;-60
2022/06/22 00:42:15;;;;;;;;;;;21.50;75.50;;;;;;5014320;28;20387;-60
2022/06/22 00:44:57;;;;;;;1.02;0.98;;;21.50;75.70;;;;;;5012212;28;19953;-60
2022/06/22 00:47:25;;;;;;;1.38;0.80;;;21.50;75.60;;;;;;4992014;28;20042;-60
2022/06/22 00:49:59;;;;;;;1.58;1.20;;;21.50;75.50;;;;;;4994026;28;20411;-60
2022/06/22 00:52:39;;;;;;;1.17;0.90;;;21.50;75.50;;;;;;5004572;28;20048;-60
2022/06/22 00:55:27;;;;;;;2.90;1.33;;;21.50;75.60;;;;;;4975832;28;20050;-60
2022/06/22 00:58:07;;;;;;;0.80;0.80;;;21.50;75.70;;;;;;5001802;28;20053;-60
2022/06/22 01:00:40;;;;;;;0.70;0.70;;;21.50;75.60;;;;;;4993251;28;20077;-60
2022/06/22 01:03:38;;;;;;;0.90;0.90;;;21.50;75.60;;;;;;4993898;28;20063;-60
2022/06/22 01:06:13;;;;;;;1.13;1.00;;;21.50;75.70;;;;;;4993713;28;20050;-60
2022/06/22 01:08:52;;;;;;;1.30;1.00;;;21.50;75.70;;;;;;4993082;28;20057;-60
2022/06/22 01:14:43;;;;;;;1.05;0.80;;;21.50;75.70;;;;;;5011675;28;20061;-60
2022/06/22 01:17:21;;;;;;;0.90;0.90;;;21.50;75.70;;;;;;5012361;28;20045;-60
2022/06/22 01:20:22;;;;;;;1.10;1.00;;;21.50;76.40;;;;;;5012350;28;20124;-60
2022/06/22 01:23:20;;;;;;;0.70;0.70;;;21.50;75.90;;;;;;4995694;28;20129;-60
2022/06/22 01:25:50;;;;;;;0.82;0.80;;;21.50;75.90;;;;;;5011512;28;20072;-60
2022/06/22 01:28:17;;;;;;;1.15;0.90;;;21.50;75.80;;;;;;5011600;28;20049;-60
2022/06/22 01:30:48;;;;;;;1.13;0.82;;;21.40;75.80;;;;;;5011563;28;20037;-60
2022/06/22 01:33:39;;;;;;;1.02;0.98;;;21.50;75.80;;;;;;5002029;28;20414;-60
2022/06/22 01:36:14;;;;;;;0.70;0.70;;;21.50;75.90;;;;;;4992611;28;20046;-60
2022/06/22 01:38:40;;;;;;;1.33;0.95;;;21.40;75.80;;;;;;5010749;28;20041;-60
2022/06/22 01:41:32;;;;;;;0.88;0.88;;;21.50;75.90;;;;;;5010132;28;20054;-60
2022/06/22 01:44:05;;;;;;;1.05;0.82;;;21.50;76.00;;;;;;5010745;28;20046;-60
2022/06/22 01:46:50;;;;;;;0.93;0.80;;;21.40;75.80;;;;;;5011457;28;20099;-60
2022/06/22 01:49:27;;;;;;;0.70;0.70;;;21.50;76.00;;;;;;4992740;28;20404;-60
2022/06/22 01:52:13;;;;;;;2.20;0.85;;;21.40;75.80;;;;;;4992437;28;20035;-60
2022/06/22 01:54:49;;;;;;;1.80;0.90;;;21.40;75.90;;;;;;4996057;28;20125;-60
2022/06/22 01:57:22;;;;;;;1.05;0.85;;;21.40;75.90;;;;;;5012067;28;20042;-60
2022/06/22 01:59:59;;;;;;;0.85;0.85;;;21.40;75.90;;;;;;5010291;28;20034;-60
2022/06/22 02:02:39;;;;;;;0.65;0.65;;;21.40;75.90;;;;;;4996230;28;20399;-60
2022/06/22 02:05:31;;;;;;;0.73;0.73;;;21.40;76.00;;;;;;5000823;28;20117;-60
2022/06/22 02:08:16;;;;;;;0.73;0.73;;;21.40;75.90;;;;;;5012001;28;20602;-60
2022/06/22 02:10:45;;;;;;;1.13;0.90;;;21.40;76.00;;;;;;5001888;28;20033;-60
2022/06/22 02:13:46;;;;;;;1.10;0.85;;;21.40;76.00;;;;;;5010339;28;20500;-60
2022/06/22 02:16:32;;;;;;;0.60;0.60;;;21.40;76.00;;;;;;5009890;28;20045;-60
2022/06/22 02:18:57;;;;;;;0.98;0.75;;;21.40;76.00;;;;;;5011428;28;20135;-60
2022/06/22 02:21:26;;;;;;;;;;;21.40;76.00;;;;;;5011945;28;20122;-60
2022/06/22 02:24:27;;;;;;;0.65;0.65;;;21.40;76.10;;;;;;5011176;28;19921;-60
2022/06/22 02:27:00;;;;;;;1.25;0.63;;;21.40;76.00;;;;;;5010271;28;20038;-60
2022/06/22 02:29:36;;;;;;;0.52;0.52;;;21.40;76.00;;;;;;5010173;28;20049;-60
2022/06/22 02:32:06;;;;;;;1.25;0.90;;;21.40;76.00;;;;;;5011336;28;20092;-60
2022/06/22 02:34:33;;;;;;;1.13;0.93;;;21.40;76.00;;;;;;5010496;28;20042;-60
2022/06/22 02:37:01;;;;;;;1.15;1.00;;;21.40;76.00;;;;;;5011192;28;20060;-60
2022/06/22 02:39:29;;;;;;;0.93;0.90;;;21.40;76.00;;;;;;5009439;28;20058;-60
2022/06/22 02:44:42;;;;;;;1.35;0.93;;;21.40;76.10;;;;;;5009360;28;20069;-61
2022/06/22 02:47:11;;;;;;;;;;;21.30;76.10;;;;;;5011528;28;20050;-60
2022/06/22 02:49:43;;;;;;;0.80;0.80;;;21.30;76.20;;;;;;5010259;28;19972;-60
2022/06/22 02:52:11;;;;;;;0.70;0.70;;;21.30;76.10;;;;;;5011003;28;20045;-60
2022/06/22 02:54:44;;;;;;;1.27;0.88;;;21.30;76.10;;;;;;5008991;28;20129;-60
2022/06/22 02:57:16;;;;;;;1.10;1.00;;;21.30;76.10;;;;;;5010127;28;20127;-60
2022/06/22 02:59:45;;;;;;;0.73;0.70;;;21.30;76.10;;;;;;5009087;28;20054;-60
2022/06/22 03:02:11;;;;;;;0.70;0.70;;;21.30;76.20;;;;;;5010643;28;20045;-60
2022/06/22 03:04:38;;;;;;;;;;;21.30;76.20;;;;;;5010261;28;20052;-60
2022/06/22 03:07:04;;;;;;;0.77;0.70;;;21.30;76.30;;;;;;5010846;28;20314;-60
2022/06/22 03:09:30;;;;;;;0.80;0.80;;;21.30;76.10;;;;;;5008995;28;20046;-60
2022/06/22 03:11:57;;;;;;;;;;;21.30;76.20;;;;;;4993510;28;20543;-60
2022/06/22 03:14:28;;;;;;;1.95;0.90;;;21.30;76.30;;;;;;5009520;28;19921;-60
2022/06/22 03:16:58;;;;;;;1.13;0.90;;;21.30;76.10;;;;;;5010384;28;20050;-60
2022/06/22 03:20:06;;;;;;;1.00;0.90;;;21.30;76.20;;;;;;5010437;28;20034;-60
2022/06/22 03:22:39;;;;;;;;;;;21.30;76.20;;;;;;4929481;29;20486;-60
2022/06/22 03:25:51;;;;;;;1.67;0.75;;;21.30;76.40;;;;;;4929343;29;20400;-60
2022/06/22 03:28:23;;;;;;;0.73;0.73;;;21.30;76.30;;;;;;4973532;28;20066;-60
2022/06/22 03:30:52;;;;;;;0.82;0.82;;;21.30;76.20;;;;;;5009488;28;20472;-60
2022/06/22 03:33:38;;;;;;;17.05;1.48;;;21.30;76.30;;;;;;5010238;28;20100;-60
2022/06/22 03:36:11;;;;;;;0.93;0.80;;;21.30;76.30;;;;;;5010308;28;20046;-60
2022/06/22 03:38:41;;;;;;;1.05;0.85;;;21.30;76.30;;;;;;5009924;28;20441;-60
2022/06/22 03:41:15;;;;;;;1.20;1.10;;;21.20;76.20;;;;;;5008233;28;20068;-60
2022/06/22 03:43:45;;;;;;;0.93;0.60;;;21.20;76.30;;;;;;4989374;28;20047;-60
2022/06/22 03:46:23;;;;;;;1.58;1.08;;;21.20;76.30;;;;;;5005865;28;20049;-60
2022/06/22 03:49:07;;;;;;;3.88;1.00;;;21.20;76.30;;;;;;5009877;28;20140;-60
2022/06/22 03:51:51;;;;;;;0.85;0.80;;;21.20;76.30;;;;;;5009980;28;20127;-60
2022/06/22 03:54:49;;;;;;;3.83;1.13;;;21.20;76.30;;;;;;5009428;28;20065;-60
2022/06/22 03:57:18;;;;;;;0.63;0.63;;;21.20;76.40;;;;;;4991587;28;20565;-60
2022/06/22 03:59:46;;;;;;;0.70;0.57;;;21.20;76.30;;;;;;5008610;28;20045;-60
2022/06/22 04:02:12;;;;;;;1.17;0.80;;;21.20;76.40;;;;;;5010283;28;20050;-60
2022/06/22 04:04:38;;;;;;;1.52;1.02;;;21.20;76.40;;;;;;5009502;28;20503;-60
2022/06/22 04:07:04;;;;;;;;;;;21.20;76.40;;;;;;5013913;28;20056;-60
2022/06/22 04:09:30;;;;;;;0.77;0.77;;;21.20;76.50;;;;;;5011700;28;19925;-60
2022/06/22 04:12:12;;;;;;;0.93;0.80;;;21.20;76.30;;;;;;4993720;28;20046;-60
2022/06/22 04:14:51;;;;;;;1.77;1.00;;;21.20;76.40;;;;;;4992976;28;20112;-60
2022/06/22 04:17:48;;;;;;;0.93;0.70;;;21.20;76.40;;;;;;4994464;28;20111;-60
2022/06/22 04:20:23;;;;;;;1.33;0.80;;;21.20;76.40;;;;;;4974802;28;20460;-60
2022/06/22 04:22:55;;;;;;;0.68;0.68;;;21.20;76.40;;;;;;4993546;28;20046;-60
2022/06/22 04:25:28;;;;;;;0.98;0.90;;;21.20;76.30;;;;;;4992765;28;20480;-60
2022/06/22 04:27:57;;;;;;;1.55;0.90;;;21.30;76.40;;;;;;4993123;28;20055;-60
2022/06/22 04:30:28;;;;;;;1.48;1.00;;;21.30;76.40;;;;;;4993241;28;20121;-60
2022/06/22 04:32:54;;;;;;;1.00;0.95;;;21.30;76.40;;;;;;4976113;28;20056;-60
2022/06/22 04:35:25;;;;;;;;;;;21.30;76.40;;;;;;5013094;28;20042;-60
2022/06/22 04:37:57;;;;;;;1.00;0.70;;;21.30;76.60;;;;;;4998288;28;19924;-60
2022/06/22 04:40:50;;;;;;;1.17;1.08;;;21.30;76.40;;;;;;4992435;28;20468;-60
2022/06/22 04:43:16;;;;;;;0.85;0.85;;;21.30;76.50;;;;;;4992690;28;20085;-60
2022/06/22 04:45:43;;;;;;;;;;;21.30;76.40;;;;;;4998304;28;20088;-60
2022/06/22 04:48:17;;;;;;;0.95;0.80;;;21.30;76.50;;;;;;5013247;28;19940;-60
2022/06/22 04:50:44;;;;;;;1.08;0.98;;;21.30;76.40;;;;;;5012493;28;20046;-60
2022/06/22 04:53:30;;;;;;;0.88;0.88;;;21.30;76.30;;;;;;4995743;28;20490;-60
2022/06/22 04:55:59;;;;;;;1.10;1.00;;;21.30;76.40;;;;;;5010597;28;20925;-60
2022/06/22 04:58:47;;;;;;;0.98;0.90;;;21.30;76.40;;;;;;4994820;28;20038;-60
2022/06/22 05:01:23;;;;;;;1.45;0.98;;;21.30;76.40;;;;;;5007595;28;20065;-61
2022/06/22 05:03:51;;;;;;;2.13;1.13;;;21.30;76.40;;;;;;5010336;28;20383;-61
2022/06/22 05:06:39;;;;;;;0.93;0.90;;;21.30;76.40;;;;;;5012730;28;20053;-61
2022/06/22 05:09:21;;;;;;;0.80;0.80;;;21.30;76.40;;;;;;5011383;28;20046;-61
2022/06/22 05:11:48;;;;;;;1.15;1.05;;;21.30;76.40;;;;;;5012092;28;20053;-61
2022/06/22 05:14:23;;;;;;;0.80;0.80;;;21.30;76.40;;;;;;5012097;28;20059;-61
2022/06/22 05:16:57;;;;;;;0.80;0.70;;;21.30;76.40;;;;;;5007154;28;20065;-61
2022/06/22 05:19:28;;;;;;;0.93;0.93;;;21.30;76.40;;;;;;5012571;28;20564;-61
2022/06/22 05:21:57;;;;;;;0.80;0.80;;;21.40;76.50;;;;;;5012163;28;20045;-61
2022/06/22 05:24:34;;;;;;;1.10;0.90;;;21.40;76.50;;;;;;4974261;28;20046;-61
2022/06/22 05:27:06;;;;;;;0.75;0.73;;;21.40;76.50;;;;;;4975031;28;20230;-60
2022/06/22 05:29:35;;;;;;;1.05;0.85;;;21.40;76.50;;;;;;4991697;28;20046;-61
2022/06/22 05:32:08;;;;;;;0.80;0.80;;;21.40;76.50;;;;;;4992211;28;20042;-61
2022/06/22 05:34:37;;;;;;;1.15;0.88;;;21.40;76.50;;;;;;4998277;28;20190;-61
2022/06/22 05:37:10;;;;;;;1.00;1.00;;;21.40;76.50;;;;;;4992484;28;20511;-61
2022/06/22 05:39:36;;;;;;;1.65;0.70;;;21.40;76.50;;;;;;5010717;28;20064;-60
2022/06/22 05:42:03;;;;;;;1.08;0.98;;;21.40;76.50;;;;;;5011634;28;20081;-61
2022/06/22 05:44:30;;;;;;;0.82;0.80;;;21.40;76.50;;;;;;5011040;28;20050;-61
2022/06/22 05:46:59;;;;;;;0.73;0.73;;;21.40;76.50;;;;;;4996005;28;20046;-61
2022/06/22 05:50:09;;;;;;;1.52;0.85;;;21.40;76.50;;;;;;4992168;28;20092;-61
2022/06/22 05:52:53;;;;;;;2.05;0.80;;;21.40;76.50;;;;;;4893856;29;20080;-61
2022/06/22 05:55:32;;;;;;;0.88;0.88;;;21.50;76.60;;;;;;4996566;28;20529;-60
2022/06/22 05:58:10;;;;;;;1.02;0.95;;;21.50;76.50;;;;;;5004537;28;20084;-61
2022/06/22 06:00:53;;;;;;;0.80;0.80;;;21.50;76.60;;;;;;4992108;28;20062;-61
2022/06/22 06:03:30;;;;;;;1.27;1.00;;;21.50;76.60;;;;;;5002985;28;20492;-61
2022/06/22 06:06:02;;;;;;;1.02;0.93;;;21.50;76.50;;;;;;5011033;28;20046;-61
2022/06/22 06:08:43;;;;;;;0.90;0.90;;;21.50;76.50;;;;;;5011630;28;20049;-60
2022/06/22 06:11:16;;;;;;;0.70;0.70;;;21.50;76.60;;;;;;5010354;28;20045;-61
2022/06/22 06:13:46;;;;;;;0.90;0.80;;;21.50;76.50;;;;;;5010672;28;20041;-61
2022/06/22 06:16:25;;;;;;;0.80;0.80;;;21.50;76.50;;;;;;5011552;28;20368;-60
2022/06/22 06:18:55;;;;;;;1.05;0.95;;;21.50;76.60;;;;;;5003524;28;20049;-61
2022/06/22 06:21:25;;;;;;;0.80;0.80;;;21.50;76.50;;;;;;4994666;28;20538;-61
2022/06/22 06:24:18;;;;;;;1.05;0.95;;;21.50;76.60;;;;;;5010729;28;20042;-61
2022/06/22 06:30:19;;;;;;;0.70;0.70;;;21.50;76.60;;;;;;5009558;28;20053;-61
2022/06/22 06:32:59;;;;;;;1.05;0.93;;;21.50;76.60;;;;;;4991493;28;20049;-61
2022/06/22 06:35:39;;;;;;;0.95;0.88;;;21.60;76.60;;;;;;4991590;28;20038;-60
2022/06/22 06:38:24;;;;;;;1.10;1.00;;;21.60;76.70;;;;;;4998363;28;20052;-60
2022/06/22 06:40:56;;;;;;;1.15;0.73;;;21.50;76.50;;;;;;5009104;28;20050;-61
2022/06/22 06:43:41;;;;;;;1.17;0.90;;;21.60;76.60;;;;;;5010103;28;20058;-61
2022/06/22 06:46:22;;;;;;;0.80;0.80;;;21.60;76.70;;;;;;5009845;28;20141;-61
2022/06/22 06:49:24;;;;;;;0.70;0.70;;;21.60;76.60;;;;;;5010385;28;20465;-61
2022/06/22 06:51:57;;;;;;;0.70;0.70;;;21.60;76.70;;;;;;4990095;28;20434;-61
2022/06/22 06:54:35;;;;;;;0.82;0.82;;;21.60;76.60;;;;;;4996609;28;20046;-61
2022/06/22 06:57:09;;;;;;;1.05;0.85;;;21.60;76.60;;;;;;4993792;28;20043;-60
2022/06/22 06:59:35;;;;;;;0.70;0.70;;;21.60;76.60;;;;;;4993718;28;20040;-61
2022/06/22 07:02:11;;;;;;;0.85;0.80;;;21.60;76.60;;;;;;4994000;28;20124;-61
2022/06/22 07:04:37;;;;;;;1.45;1.00;;;21.60;76.60;;;;;;4995146;28;20042;-60
2022/06/22 07:07:13;;;;;;;1.20;0.80;;;21.60;76.70;;;;;;4993123;28;20120;-60
2022/06/22 07:09:40;;;;;;;0.77;0.77;;;21.60;76.70;;;;;;4996692;28;20065;-61
2022/06/22 07:12:09;;;;;;;1.17;0.90;;;21.60;76.70;;;;;;4989408;28;20034;-60
2022/06/22 07:14:39;;;;;;;0.80;0.77;;;21.60;76.70;;;;;;4988486;28;20046;-61
2022/06/22 07:17:09;;;;;;;1.25;0.88;;;21.60;76.60;;;;;;5004161;28;20082;-60
2022/06/22 07:19:43;;;;;;;3.60;1.90;;;21.60;76.70;;;;;;4995839;28;20042;-61
2022/06/22 07:22:30;;;;;;;5.18;2.20;;;21.60;76.50;;;;;;4996220;28;20127;-61
2022/06/22 07:25:02;;;;;;;5.40;2.13;;;21.60;75.60;;;;;;4997865;28;20447;-61
2022/06/22 07:27:27;;;;;;;3.38;1.52;;;21.60;75.70;;;;;;5005168;28;20149;-60
2022/06/22 07:29:56;;;;;;;;;;;21.60;75.50;;;;;;5001334;28;20149;-60
2022/06/22 07:32:31;;;;;;;3.15;1.77;;;21.60;74.40;;;;;;5001010;28;19917;-61
2022/06/22 07:35:24;;;;;;;16.10;8.38;;;21.50;75.10;;;;;;4999633;28;20042;-61
2022/06/22 07:38:12;;;;;;;5.57;1.75;;;21.50;74.70;;;;;;5004550;28;20061;-62
2022/06/22 07:40:39;;;;;;;3.25;1.77;;;21.50;74.20;;;;;;5010003;28;20054;-61
2022/06/22 07:43:08;;;;;;;6.82;1.88;;;21.50;74.70;;;;;;5000892;28;20046;-61
2022/06/22 07:45:34;;;;;;;7.97;2.10;;;21.50;74.70;;;;;;4996550;28;20778;-61
2022/06/22 07:48:07;;;;;;;5.00;1.67;;;21.50;74.70;;;;;;5013990;28;20480;-61
2022/06/22 07:50:35;;;;;;;3.55;1.50;;;21.50;75.30;;;;;;5014410;28;20123;-62
2022/06/22 07:53:18;;;;;;;2.80;1.83;;;21.50;74.70;;;;;;5013798;28;20042;-62
2022/06/22 07:56:01;;;;;;;4.32;1.77;;;21.60;74.70;;;;;;5013488;28;20041;-61
2022/06/22 07:58:38;;;;;;;3.75;1.80;;;21.60;74.60;;;;;;5013541;28;20069;-62
2022/06/22 08:01:09;;;;;;;2.33;1.33;;;21.60;74.60;;;;;;5013709;28;20092;-61
2022/06/22 08:03:50;;;;;;;4.45;1.60;;;21.60;74.70;;;;;;5013751;28;20033;-61
2022/06/22 08:06:29;;;;;;;2.60;1.33;;;21.60;74.60;;;;;;5013936;28;20049;-61
2022/06/22 08:09:12;;;;;;;3.60;1.30;;;21.60;74.50;;;;;;4994770;28;20472;-61
2022/06/22 08:11:41;;;;;;;3.95;1.48;;;21.60;74.50;;;;;;5014097;28;20368;-60
2022/06/22 08:14:15;;;;;;;3.55;1.30;;;21.60;74.50;;;;;;5012102;28;20057;-61
2022/06/22 08:16:45;;;;;;;7.07;1.67;;;21.70;74.50;;;;;;5014035;28;20050;-61
2022/06/22 08:19:12;;;;;;;2.80;1.50;;;21.60;74.40;;;;;;5013450;28;20216;-61
2022/06/22 08:21:46;;;;;;;4.43;1.55;;;21.70;74.20;;;;;;5014127;28;20049;-61
2022/06/22 08:24:13;;;;;;;6.03;1.50;;;21.70;74.00;;;;;;5012785;28;20054;-62
2022/06/22 08:26:40;;;;;;;4.03;1.42;;;21.80;74.00;;;;;;5013319;28;20360;-62
2022/06/22 08:29:06;;;;;;;6.10;1.88;;;21.80;74.60;;;;;;5012304;28;20046;-62
2022/06/22 08:31:36;;;;;;;;;;;21.90;73.90;;;;;;5013710;28;20119;-63
2022/06/22 08:34:07;;;;;;;8.13;1.73;;;21.90;73.80;;;;;;5012639;28;20366;-63
2022/06/22 08:36:40;;;;;;;6.88;1.70;;;21.90;73.90;;;;;;5012647;28;20487;-63
2022/06/22 08:39:12;;;;;;;4.10;1.58;;;22.00;73.90;;;;;;5010919;28;20540;-60
2022/06/22 08:41:41;;;;;;;1.27;1.00;;;22.00;73.90;;;;;;5013409;28;20074;-62
2022/06/22 08:44:23;;;;;;;3.75;1.33;;;22.00;73.30;;;;;;5012147;28;20053;-61
2022/06/22 08:47:22;;;;;;;2.03;1.08;;;22.00;73.10;;;;;;5013777;28;20046;-62
2022/06/22 08:50:01;;;;;;;1.73;1.15;;;22.00;72.40;;;;;;4994068;28;20050;-62
2022/06/22 08:52:54;;;;;;;4.47;1.60;;;22.00;72.50;;;;;;5007065;28;20042;-62
2022/06/22 08:55:44;;;;;;;2.47;1.20;;;22.00;72.50;;;;;;5005376;28;20042;-61
2022/06/22 08:58:16;;;;;;;1.90;1.27;;;22.10;72.30;;;;;;4992562;28;20101;-62
2022/06/22 09:01:09;;;;;;;3.20;1.42;;;22.10;72.50;;;;;;4998834;28;20038;-62
2022/06/22 09:04:19;;;;;;;1.17;1.08;;;22.10;73.00;;;;;;5013597;28;20057;-62
2022/06/22 09:07:12;;;;;;;1.50;1.05;;;22.10;72.00;;;;;;5012657;28;20096;-62
2022/06/22 09:10:45;;;;;;;2.33;1.10;;;22.10;72.00;;;;;;5011604;28;20050;-61
2022/06/22 09:13:29;;;;;;;2.08;1.10;;;22.10;71.90;;;;;;4881656;28;20376;-61
2022/06/22 09:16:02;;;;;;;1.70;1.25;;;22.20;72.10;;;;;;4993504;28;20042;-62
2022/06/22 09:18:52;;;;;;;4.32;1.55;;;22.20;71.70;;;;;;4989482;28;20045;-63
2022/06/22 09:21:59;;;;;;;4.30;1.67;;;22.20;70.80;;;;;;4997434;28;21034;-61
2022/06/22 09:24:51;;;;;;;6.35;1.40;;;22.20;70.30;;;;;;5003829;28;20153;-61
2022/06/22 09:27:40;;;;;;;2.33;1.30;;;22.20;69.60;;;;;;5004833;28;20068;-61
2022/06/22 09:30:51;;;;;;;3.65;1.58;;;22.10;69.60;;;;;;5011950;28;20058;-60
2022/06/22 09:33:24;;;;;;;1.80;1.10;;;22.10;69.50;;;;;;4913373;29;20767;-61
2022/06/22 09:36:16;;;;;;;4.32;1.52;;;22.10;69.80;;;;;;4913735;29;20055;-61
2022/06/22 09:38:51;;;;;;;4.30;1.20;;;22.10;69.10;;;;;;4968724;28;20060;-61
2022/06/22 09:41:31;;;;;;;3.50;1.23;;;22.10;69.50;;;;;;4997157;28;20262;-61
2022/06/22 09:44:22;;;;;;;4.25;1.25;;;22.10;69.50;;;;;;5005115;28;20046;-61
2022/06/22 09:46:53;;;;;;;4.80;1.17;;;22.10;68.90;;;;;;4997158;28;20372;-61
2022/06/22 09:49:37;;;;;;;2.70;1.20;;;22.10;69.40;;;;;;5011684;28;20049;-61
2022/06/22 09:52:23;;;;;;;4.93;1.10;;;22.10;69.50;;;;;;4983628;28;20117;-61
2022/06/22 09:57:57;;;;;;;6.20;1.50;;;22.20;69.50;;;;;;5006300;28;20049;-61
2022/06/22 10:00:33;;;;;;;3.65;1.20;;;22.20;69.60;;;;;;5000978;28;20062;-61
2022/06/22 10:03:17;;;;;;;4.10;1.20;;;22.20;69.50;;;;;;5007944;28;20049;-61
2022/06/22 10:06:31;;;;;;;1.38;1.00;;;22.20;69.40;;;;;;5011339;28;20501;-61
2022/06/22 10:09:11;;;;;;;5.05;1.50;;;22.20;69.50;;;;;;4931228;29;20047;-61
2022/06/22 10:11:47;;;;;;;2.03;1.20;;;22.20;69.50;;;;;;4931916;29;20086;-61
2022/06/22 10:14:38;;;;;;;2.88;0.80;;;22.20;69.50;;;;;;4980437;28;20112;-61
2022/06/22 10:17:16;;;;;;;2.72;1.23;;;22.20;69.50;;;;;;5011390;28;20042;-61
2022/06/22 10:20:01;;;;;;;1.23;1.00;;;22.20;69.50;;;;;;5011371;28;20125;-61
2022/06/22 10:23:07;;;;;;;4.28;1.40;;;22.20;69.50;;;;;;5004414;28;20057;-61
2022/06/22 10:26:14;;;;;;;1.30;0.82;;;22.20;69.30;;;;;;5003912;28;20048;-61
2022/06/22 10:29:07;;;;;;;2.05;1.35;;;22.30;69.50;;;;;;5010981;28;20038;-61
2022/06/22 10:31:55;;;;;;;3.10;1.85;;;22.20;69.60;;;;;;5011722;28;20038;-61
2022/06/22 10:34:43;;;;;;;4.43;1.10;;;22.20;69.50;;;;;;4992529;28;20049;-61
2022/06/22 10:37:26;;;;;;;2.40;1.10;;;22.30;69.50;;;;;;4999204;28;20056;-61
2022/06/22 10:40:08;;;;;;;5.72;1.00;;;22.30;69.60;;;;;;4997038;28;20060;-61
2022/06/22 10:45:55;;;;;;;1.83;1.10;;;22.30;69.50;;;;;;5011314;28;20057;-62
2022/06/22 10:48:59;;;;;;;2.80;0.98;;;22.30;69.70;;;;;;5006312;28;20042;-62
2022/06/22 10:52:03;;;;;;;1.98;1.30;;;22.30;69.50;;;;;;4991454;28;20038;-62
2022/06/22 10:55:06;;;;;;;1.17;1.00;;;22.30;69.70;;;;;;4990579;28;20057;-62
2022/06/22 10:57:52;;;;;;;1.83;0.90;;;22.30;70.30;;;;;;4941460;28;20061;-62
2022/06/22 11:00:36;;;;;;;2.03;0.83;;;22.30;69.70;;;;;;4973341;28;20049;-62
2022/06/22 11:03:47;;;;;;;2.60;0.93;;;22.30;69.70;;;;;;4974299;28;20149;-62
2022/06/22 11:06:35;;;;;;;3.30;1.02;;;22.30;69.70;;;;;;4973946;28;20053;-62
2022/06/22 11:09:46;;;;;;;0.93;0.85;;;22.30;69.80;;;;;;5000370;28;20042;-62
2022/06/22 11:12:29;;;;;;;2.03;0.90;;;22.30;69.60;;;;;;4991089;28;20038;-62
2022/06/22 11:15:10;;;;;;;2.85;1.05;;;22.30;69.90;;;;;;4990702;28;20050;-63
2022/06/22 11:18:13;;;;;;;4.43;1.70;;;22.30;69.70;;;;;;5002711;28;20042;-62
2022/06/22 11:20:38;;;;;;;1.08;0.88;;;22.30;70.30;;;;;;4983898;28;20426;-62
2022/06/22 11:23:16;;;;;;;1.75;0.90;;;22.30;69.80;;;;;;5006281;28;20042;-63
2022/06/22 11:32:22;;;;;;;1.40;0.90;;;22.30;69.80;;;;;;4995619;28;20199;-62
2022/06/22 11:35:25;;;;;;;0.50;0.50;;;22.30;70.00;;;;;;5004426;28;20133;-62
2022/06/22 11:38:07;;;;;;;1.00;0.85;;;22.30;69.90;;;;;;4998823;28;20487;-62
2022/06/22 11:40:38;;;;;;;4.57;1.40;;;22.40;70.50;;;;;;4995034;28;20456;-63
2022/06/22 11:43:22;;;;;;;1.35;0.95;;;22.40;69.40;;;;;;5003602;28;20510;-62
2022/06/22 11:46:05;;;;;;;1.80;0.88;;;22.40;69.00;;;;;;5010360;28;20073;-62
2022/06/22 11:48:40;;;;;;;2.72;0.90;;;22.40;69.00;;;;;;5011103;28;20046;-63
2022/06/22 11:51:22;;;;;;;0.60;0.60;;;22.40;69.00;;;;;;5010631;28;20042;-62
2022/06/22 11:54:35;;;;;;;1.45;0.90;;;22.40;69.20;;;;;;5010835;28;20175;-63
2022/06/22 11:57:30;;;;;;;2.22;1.17;;;22.40;68.80;;;;;;5001710;28;20050;-63
2022/06/22 12:00:13;;;;;;;0.90;0.90;;;22.40;69.10;;;;;;4972032;28;20480;-62
2022/06/22 12:03:12;;;;;;;0.70;0.70;;;22.30;69.00;;;;;;5001822;28;20045;-62
2022/06/22 12:05:52;;;;;;;1.80;1.00;;;22.30;69.10;;;;;;4956206;28;20129;-62
2022/06/22 12:08:29;;;;;;;1.27;0.90;;;22.30;69.10;;;;;;4992935;28;20096;-62
2022/06/22 12:11:01;;;;;;;1.10;0.65;;;22.30;69.00;;;;;;5009686;28;20053;-63
2022/06/22 12:17:08;;;;;;;2.20;0.82;;;22.30;68.90;;;;;;5002967;28;20113;-62
2022/06/22 12:19:52;;;;;;;0.88;0.70;;;22.30;69.00;;;;;;4990773;28;20058;-63
2022/06/22 12:22:45;;;;;;;1.42;1.10;;;22.40;69.00;;;;;;5009592;28;20040;-63
2022/06/22 12:25:16;;;;;;;0.90;0.77;;;22.30;69.10;;;;;;5003127;28;20038;-63
2022/06/22 12:27:48;;;;;;;0.98;0.70;;;22.30;69.10;;;;;;4992935;28;20384;-63
2022/06/22 12:30:40;;;;;;;2.58;0.82;;;22.30;69.20;;;;;;4993516;28;20057;-63
2022/06/22 12:33:19;;;;;;;1.70;0.70;;;22.30;69.00;;;;;;4994598;28;20140;-63
2022/06/22 12:35:58;;;;;;;1.38;0.80;;;22.30;69.10;;;;;;4994342;28;20145;-63
2022/06/22 12:38:46;;;;;;;1.40;1.13;;;22.40;69.20;;;;;;4993859;28;20045;-63
2022/06/22 12:41:45;;;;;;;2.40;1.20;;;22.30;68.90;;;;;;4999167;28;20459;-63
2022/06/22 12:44:26;;;;;;;2.58;0.90;;;22.40;69.00;;;;;;4993935;28;20117;-62
2022/06/22 12:47:10;;;;;;;1.73;0.90;;;22.30;69.10;;;;;;4994063;28;20054;-62
2022/06/22 12:49:51;;;;;;;0.90;0.80;;;22.30;69.30;;;;;;4999454;28;20129;-63
2022/06/22 12:52:23;;;;;;;1.20;0.80;;;22.30;69.10;;;;;;4993003;28;20078;-63
2022/06/22 12:54:59;;;;;;;1.15;0.80;;;22.30;69.10;;;;;;5012422;28;20054;-63
2022/06/22 12:57:40;;;;;;;1.35;0.80;;;22.20;69.00;;;;;;4999559;28;20042;-62
2022/06/22 13:00:13;;;;;;;1.60;1.05;;;22.40;69.10;;;;;;5012539;28;20479;-63
2022/06/22 13:02:41;;;;;;;2.53;1.05;;;22.40;69.10;;;;;;5013431;28;20042;-63
2022/06/22 13:05:11;;;;;;;1.27;1.17;;;22.40;69.20;;;;;;5012079;28;20077;-63
2022/06/22 13:07:43;;;;;;;0.70;0.70;;;22.40;69.10;;;;;;5003477;28;20554;-63
2022/06/22 13:10:28;;;;;;;0.70;0.70;;;;;;;;;;5010821;28;20073;-62
2022/06/22 13:13:00;;;;;;;1.00;0.77;;;;;;;;;;5012273;28;20099;-62
2022/06/22 13:15:59;;;;;;;1.08;0.90;;;;;;;;;;4998591;28;20501;-62
2022/06/22 13:18:30;;;;;;;1.23;0.80;;;;;;;;;;4958136;28;20093;-60
2022/06/22 13:21:00;;;;;;;1.05;0.88;;;;;;;;;;5012788;28;20061;-62
2022/06/22 13:23:26;;;;;;;2.70;0.80;;;;;;;;;;5008498;28;20042;-63
2022/06/22 13:25:57;;;;;;;0.77;0.77;;;;;;;;;;5010842;28;20084;-62
2022/06/22 13:28:26;;;;;;;1.02;0.95;;;;;;;;;;4990661;28;20790;-62
2022/06/22 13:30:57;;;;;;;1.60;1.00;;;;;;;;;;5011252;28;20430;-63
2022/06/22 13:33:30;;;;;;;1.52;0.90;;;;;;;;;;4994454;28;20998;-63
2022/06/22 13:36:19;;;;;;;2.33;0.73;;;;;;;;;;4998880;28;20046;-63
2022/06/22 13:38:45;;;;;;;1.15;0.95;;;;;;;;;;4999867;28;20107;-63
2022/06/22 13:41:43;;;;;;;0.70;0.70;;;;;;;;;;5010664;28;20496;-63
2022/06/22 13:44:20;;;;;;;1.60;0.80;;;;;;;;;;4967045;28;20411;-62
2022/06/22 13:47:04;;;;;;;0.85;0.85;;;;;;;;;;5007682;28;20113;-62
2022/06/22 13:49:43;;;;;;;1.90;0.90;;;;;;;;;;5004763;28;20132;-63
2022/06/22 13:52:15;;;;;;;0.95;0.77;;;;;;;;;;5012408;28;20042;-62
2022/06/22 13:54:53;;;;;;;0.98;0.88;;;;;;;;;;5007418;28;20042;-63
2022/06/22 13:57:19;;;;;;;1.48;0.95;;;;;;;;;;4996646;28;20062;-63
2022/06/22 14:00:11;;;;;;;0.70;0.70;;;;;;;;;;4991605;28;20047;-62
2022/06/22 14:02:46;;;;;;;1.52;0.80;;;;;;;;;;5001559;28;20135;-63
2022/06/22 14:05:12;;;;;;;0.80;0.80;;;;;;;;;;5011689;28;20042;-62
2022/06/22 14:07:43;;;;;;;1.27;1.05;;;;;;;;;;4994196;28;20050;-62
2022/06/22 14:10:12;;;;;;;1.13;0.80;;;;;;;;;;4986917;28;20136;-62
2022/06/22 14:12:42;;;;;;;1.05;0.85;;;;;;;;;;5003876;28;20498;-62
2022/06/22 14:15:14;;;;;;;0.80;0.77;;;;;;;;;;4989819;28;20140;-63
2022/06/22 14:17:44;;;;;;;0.90;0.70;;;;;;;;;;4977555;28;20471;-63
2022/06/22 14:20:16;;;;;;;1.17;0.75;;;;;;;;;;5004075;28;20046;-64
2022/06/22 14:22:46;;;;;;;0.93;0.85;;;;;;;;;;5010796;28;20042;-63
2022/06/22 14:25:16;;;;;;;1.85;1.10;;;;;;;;;;5005404;28;20042;-63